Time;durP1;ratioP1;P1;durP2;ratioP2;P2;SDS_P1;SDS_P2;PMS_P1;PMS_P2;Temp;Humidity;BMP_temperature;BMP_pressure;BME280_temperature;BME280_humidity;BME280_pressure;Samples;Min_cycle;Max_cycle;Signal;HPM_P1;HPM_P2
2024/01/16 00:01:43;;;;;;;;;;;;;;;4.36;59.58;99908.84;4964339;28;7036;-75
2024/01/16 00:04:10;;;;;;;;;;;;;;;4.30;59.73;99914.41;4959119;28;8581;-74
2024/01/16 00:06:40;;;;;;;;;;;;;;;4.24;59.78;99916.53;4962930;28;7222;-73
2024/01/16 00:09:06;;;;;;;;;;;;;;;4.17;60.12;99913.56;4956850;28;7197;-74
2024/01/16 00:11:32;;;;;;;;;;;;;;;4.14;59.97;99909.94;4959906;28;6784;-74
2024/01/16 00:13:57;;;;;;;;;;;;;;;4.11;59.79;99907.22;4961003;28;7047;-73
2024/01/16 00:16:25;;;;;;;;;;;;;;;4.10;60.69;99925.75;4960476;28;7653;-72
2024/01/16 00:18:50;;;;;;;;;;;;;;;4.11;60.91;99915.72;4965409;28;6784;-74
2024/01/16 00:21:16;;;;;;;;;;;;;;;4.14;60.13;99915.03;4964746;28;6764;-73
2024/01/16 00:23:42;;;;;;;;;;;;;;;4.17;60.70;99922.88;4944817;28;7246;-75
2024/01/16 00:26:07;;;;;;;;;;;;;;;4.22;60.67;99931.63;4960506;28;7114;-72
2024/01/16 00:28:33;;;;;;;;;;;;;;;4.28;60.60;99929.50;4959997;28;6951;-73
2024/01/16 00:30:59;;;;;;;;;;;;;;;4.34;61.00;99933.22;4958542;28;7245;-72
2024/01/16 00:33:27;;;;;;;;;;;;;;;4.41;60.30;99930.31;4959873;28;6800;-74
2024/01/16 00:35:52;;;;;;;;;;;;;;;4.46;60.71;99936.56;4944266;28;6812;-72
2024/01/16 00:38:18;;;;;;;;;;;;;;;4.50;60.99;99932.59;4945891;28;7321;-73
2024/01/16 00:40:43;;;;;;;;;;;;;;;4.54;60.28;99935.41;4948287;28;7038;-72
2024/01/16 00:43:09;;;;;;;;;;;;;;;4.59;60.36;99936.56;4962150;28;6949;-74
2024/01/16 00:45:35;;;;;;;;;;;;;;;4.62;60.07;99935.91;4959939;28;6764;-73
2024/01/16 00:48:00;;;;;;;;;;;;;;;4.65;60.13;99942.84;4963304;28;6910;-75
2024/01/16 00:50:26;;;;;;;;;;;;;;;4.65;60.12;99948.78;4950657;28;6945;-72
2024/01/16 00:52:52;;;;;;;;;;;;;;;4.66;60.37;99948.00;4962229;28;6967;-73
2024/01/16 00:55:17;;;;;;;;;;;;;;;4.69;60.13;99950.75;4958029;28;6939;-72
2024/01/16 00:57:43;;;;;;;;;;;;;;;4.70;60.61;99954.16;4960763;28;6796;-72
2024/01/16 01:00:11;;;;;;;;;;;;;;;4.70;60.50;99951.63;4940352;28;7468;-73
2024/01/16 01:02:37;;;;;;;;;;;;;;;4.73;60.15;99960.31;4963723;28;11447;-75
2024/01/16 01:05:03;;;;;;;;;;;;;;;4.73;60.11;99951.81;4958990;28;7266;-72
2024/01/16 01:07:28;;;;;;;;;;;;;;;4.73;60.25;99960.31;4960100;28;6840;-72
2024/01/16 01:09:54;;;;;;;;;;;;;;;4.73;59.90;99960.31;4961662;28;6936;-72
2024/01/16 01:12:19;;;;;;;;;;;;;;;4.73;60.28;99951.81;4957734;28;6804;-72
2024/01/16 01:14:45;;;;;;;;;;;;;;;4.73;60.19;99964.50;4959492;28;7011;-75
2024/01/16 01:17:11;;;;;;;;;;;;;;;4.72;60.17;99965.28;4959617;28;6800;-75
2024/01/16 01:19:36;;;;;;;;;;;;;;;4.69;60.10;99963.44;4959873;28;6903;-75
2024/01/16 01:22:02;;;;;;;;;;;;;;;4.70;60.14;99972.81;4960321;28;6781;-75
2024/01/16 01:24:28;;;;;;;;;;;;;;;4.71;59.82;99973.69;4957753;28;6788;-75
2024/01/16 01:26:53;;;;;;;;;;;;;;;4.70;60.49;99964.31;4942233;28;6950;-75
2024/01/16 01:29:19;;;;;;;;;;;;;;;4.70;60.50;99967.75;4948998;28;6990;-75
2024/01/16 01:31:47;;;;;;;;;;;;;;;4.69;60.05;99968.53;4953354;28;6987;-75
2024/01/16 01:34:13;;;;;;;;;;;;;;;4.67;60.44;99967.53;4941953;28;6976;-75
2024/01/16 01:36:39;;;;;;;;;;;;;;;4.68;60.05;99973.50;4945726;28;7024;-75
2024/01/16 01:39:05;;;;;;;;;;;;;;;4.68;60.39;99976.03;4956536;28;6938;-75
2024/01/16 01:41:31;;;;;;;;;;;;;;;4.69;60.42;99975.25;4956772;28;6987;-75
2024/01/16 01:43:56;;;;;;;;;;;;;;;4.71;59.97;99977.13;4956441;28;6764;-75
2024/01/16 01:46:22;;;;;;;;;;;;;;;4.73;60.21;99993.31;4946390;28;6962;-75
2024/01/16 01:48:48;;;;;;;;;;;;;;;4.75;59.96;99985.81;4952721;28;6856;-75
2024/01/16 01:51:18;;;;;;;;;;;;;;;4.76;59.67;99989.22;4946102;28;6946;-75
2024/01/16 01:53:46;;;;;;;;;;;;;;;4.76;59.88;99986.69;4938607;28;7189;-75
2024/01/16 01:56:18;;;;;;;;;;;;;;;4.75;59.97;99985.81;4948984;28;6808;-75
2024/01/16 01:58:47;;;;;;;;;;;;;;;4.75;59.96;99985.81;4954969;28;7082;-75
2024/01/16 02:01:16;;;;;;;;;;;;;;;4.74;60.35;99989.13;4955217;28;7233;-75
2024/01/16 02:03:45;;;;;;;;;;;;;;;4.73;59.77;99989.88;4941727;28;7212;-75
2024/01/16 02:06:12;;;;;;;;;;;;;;;4.71;59.54;99988.91;4957239;28;6903;-75
2024/01/16 02:08:39;;;;;;;;;;;;;;;4.71;59.64;99988.91;4956136;28;6781;-75
2024/01/16 02:11:05;;;;;;;;;;;;;;;4.70;59.80;100004.94;4937754;28;7013;-75
2024/01/16 02:13:31;;;;;;;;;;;;;;;4.69;60.01;99998.09;4940666;28;7151;-75
2024/01/16 02:15:57;;;;;;;;;;;;;;;4.69;59.66;100000.63;4958327;28;7141;-75
2024/01/16 02:18:23;;;;;;;;;;;;;;;4.70;60.16;100010.00;4942544;28;7045;-75
2024/01/16 02:20:49;;;;;;;;;;;;;;;4.71;59.82;99996.53;4958620;28;6780;-75
2024/01/16 02:23:15;;;;;;;;;;;;;;;4.72;59.93;99998.28;4939250;28;6788;-75
2024/01/16 02:25:44;;;;;;;;;;;;;;;4.73;59.95;99997.50;4952406;28;7172;-75
2024/01/16 02:28:10;;;;;;;;;;;;;;;4.72;60.08;99996.66;4954748;28;6816;-75
2024/01/16 02:30:36;;;;;;;;;;;;;;;4.71;59.53;99984.72;4956407;28;6788;-75
2024/01/16 02:33:03;;;;;;;;;;;;;;;4.72;59.83;99994.09;4954977;28;6913;-75
2024/01/16 02:35:29;;;;;;;;;;;;;;;4.73;59.68;99982.28;4957587;28;7234;-75
2024/01/16 02:37:54;;;;;;;;;;;;;;;4.71;59.83;99987.28;4929675;28;6961;-75
2024/01/16 02:40:20;;;;;;;;;;;;;;;4.71;60.02;99994.88;4957735;28;6972;-75
2024/01/16 02:42:46;;;;;;;;;;;;;;;4.71;59.68;99989.81;4938300;28;6964;-75
2024/01/16 02:45:12;;;;;;;;;;;;;;;4.71;59.99;99994.00;4956905;28;6764;-75
2024/01/16 02:47:37;;;;;;;;;;;;;;;4.70;59.94;99993.13;4955255;28;6776;-75
2024/01/16 02:50:03;;;;;;;;;;;;;;;4.72;59.87;99996.66;4939072;28;6965;-75
2024/01/16 02:52:29;;;;;;;;;;;;;;;4.73;59.73;99992.44;4954387;28;6780;-75
2024/01/16 02:54:55;;;;;;;;;;;;;;;4.74;59.43;99994.22;4956572;28;6868;-75
2024/01/16 02:57:21;;;;;;;;;;;;;;;4.73;60.06;99990.78;4959235;28;6784;-75
2024/01/16 02:59:46;;;;;;;;;;;;;;;4.73;59.83;99992.44;4957241;28;6828;-75
2024/01/16 03:02:13;;;;;;;;;;;;;;;4.72;59.73;99990.66;4954625;28;6772;-75
2024/01/16 03:04:39;;;;;;;;;;;;;;;4.70;59.70;99975.38;4955381;28;6808;-75
2024/01/16 03:07:06;;;;;;;;;;;;;;;4.69;59.49;99981.22;4945141;28;7210;-75
2024/01/16 03:09:31;;;;;;;;;;;;;;;4.69;59.92;99987.94;4925657;28;7011;-75
2024/01/16 03:12:00;;;;;;;;;;;;;;;4.67;59.42;99979.34;4960537;28;6788;-75
2024/01/16 03:14:25;;;;;;;;;;;;;;;4.67;60.06;99984.44;4958229;28;7079;-75
2024/01/16 03:16:51;;;;;;;;;;;;;;;4.64;60.03;99976.63;4959178;28;6915;-75
2024/01/16 03:19:17;;;;;;;;;;;;;;;4.64;60.09;99979.16;4941149;28;7234;-75
2024/01/16 03:21:42;;;;;;;;;;;;;;;4.64;59.48;99979.16;4943021;28;6777;-75
2024/01/16 03:24:10;;;;;;;;;;;;;;;4.63;60.12;99982.47;4959917;28;7345;-75
2024/01/16 03:26:37;;;;;;;;;;;;;;;4.64;60.07;99984.25;4962351;28;6796;-75
2024/01/16 03:29:02;;;;;;;;;;;;;;;4.63;59.45;99985.00;4950383;28;6789;-75
2024/01/16 03:31:28;;;;;;;;;;;;;;;4.62;60.03;99980.69;4958801;28;6789;-75
2024/01/16 03:33:54;;;;;;;;;;;;;;;4.61;60.00;99977.31;4960002;28;7158;-75
2024/01/16 03:36:19;;;;;;;;;;;;;;;4.61;59.57;99974.75;4955456;28;7227;-76
2024/01/16 03:38:45;;;;;;;;;;;;;;;4.62;60.12;99970.56;4972886;28;6920;-78
2024/01/16 03:41:12;;;;;;;;;;;;;;;4.63;59.39;99969.75;4957055;28;6949;-75
2024/01/16 03:43:38;;;;;;;;;;;;;;;4.62;59.52;99968.00;4941096;28;8441;-75
2024/01/16 03:46:04;;;;;;;;;;;;;;;4.61;59.70;99969.69;4959604;28;6784;-75
2024/01/16 03:48:30;;;;;;;;;;;;;;;4.58;59.85;99965.28;4969792;28;6868;-78
2024/01/16 03:50:56;;;;;;;;;;;;;;;4.57;59.86;99961.00;4969843;28;6760;-75
2024/01/16 03:53:22;;;;;;;;;;;;;;;4.54;59.41;99970.06;4967539;28;6795;-78
2024/01/16 03:55:49;;;;;;;;;;;;;;;4.49;59.60;99957.06;4961220;28;7478;-77
2024/01/16 03:58:16;;;;;;;;;;;;;;;4.48;59.50;99959.50;4960591;28;7261;-78
2024/01/16 04:00:44;;;;;;;;;;;;;;;4.42;58.98;99963.41;4972302;28;6792;-73
2024/01/16 04:03:10;;;;;;;;;;;;;;;4.37;59.20;99962.22;4976514;28;6788;-76
2024/01/16 04:05:35;;;;;;;;;;;;;;;4.33;59.69;99951.75;4970798;28;7219;-76
2024/01/16 04:08:01;;;;;;;;;;;;;;;4.27;58.98;99953.13;4962333;28;7329;-78
2024/01/16 04:10:27;;;;;;;;;;;;;;;4.22;59.49;99954.47;4976800;28;6895;-77
2024/01/16 04:12:52;;;;;;;;;;;;;;;4.15;59.20;99952.28;4975038;28;6780;-77
2024/01/16 04:15:18;;;;;;;;;;;;;;;4.09;59.66;99947.69;4944474;28;9420;-75
2024/01/16 04:17:44;;;;;;;;;;;;;;;4.05;59.77;99948.28;4952378;28;6957;-74
2024/01/16 04:20:10;;;;;;;;;;;;;;;4.01;59.15;99946.34;4971689;28;7291;-76
2024/01/16 04:22:36;;;;;;;;;;;;;;;3.97;59.32;99944.34;4969825;28;7053;-75
2024/01/16 04:25:04;;;;;;;;;;;;;;;3.94;58.89;99946.69;4981284;28;6820;-74
2024/01/16 04:27:31;;;;;;;;;;;;;;;3.92;59.60;99948.25;4970065;28;6982;-77
2024/01/16 04:29:57;;;;;;;;;;;;;;;3.92;58.97;99938.09;4965948;28;7176;-77
2024/01/16 04:32:23;;;;;;;;;;;;;;;3.93;59.43;99944.94;4950269;28;8467;-75
2024/01/16 04:34:48;;;;;;;;;;;;;;;3.95;59.44;99944.22;4966349;28;6784;-75
2024/01/16 04:37:14;;;;;;;;;;;;;;;3.99;59.11;99946.22;4958538;28;6944;-76
2024/01/16 04:39:39;;;;;;;;;;;;;;;4.05;59.85;99948.28;4976491;28;6932;-75
2024/01/16 04:42:05;;;;;;;;;;;;;;;4.08;59.94;99943.41;4973967;28;6856;-74
2024/01/16 04:44:31;;;;;;;;;;;;;;;4.13;59.95;99946.25;4965252;28;7615;-74
2024/01/16 04:46:56;;;;;;;;;;;;;;;4.14;60.04;99946.34;4957609;28;6852;-75
2024/01/16 04:49:22;;;;;;;;;;;;;;;4.18;59.76;99942.38;4961560;28;6772;-75
2024/01/16 04:51:47;;;;;;;;;;;;;;;4.20;59.53;99943.34;4954312;28;9380;-75
2024/01/16 04:54:13;;;;;;;;;;;;;;;4.23;59.01;99940.16;4955454;28;7346;-75
2024/01/16 04:56:39;;;;;;;;;;;;;;;4.24;58.87;99940.22;4961789;28;6919;-75
2024/01/16 04:59:04;;;;;;;;;;;;;;;4.26;58.65;99948.84;4958419;28;6768;-75
2024/01/16 05:01:30;;;;;;;;;;;;;;;4.26;58.67;99947.94;4949832;28;6833;-75
2024/01/16 05:03:56;;;;;;;;;;;;;;;4.26;58.50;99941.22;4959448;28;6776;-75
2024/01/16 05:06:21;;;;;;;;;;;;;;;4.25;58.85;99947.09;4964909;28;6768;-75
2024/01/16 05:08:47;;;;;;;;;;;;;;;4.25;58.96;99936.03;4963231;28;6972;-75
2024/01/16 05:11:12;;;;;;;;;;;;;;;4.23;59.24;99933.38;4949354;28;6920;-75
2024/01/16 05:13:38;;;;;;;;;;;;;;;4.22;58.93;99936.72;4959287;28;6773;-75
2024/01/16 05:16:05;;;;;;;;;;;;;;;4.21;58.85;99924.81;4962009;28;7401;-75
2024/01/16 05:18:32;;;;;;;;;;;;;;;4.21;58.21;99929.88;4923830;28;6982;-75
2024/01/16 05:20:58;;;;;;;;;;;;;;;4.19;58.59;99928.91;4960094;28;6800;-75
2024/01/16 05:23:24;;;;;;;;;;;;;;;4.20;58.68;99924.69;4941058;28;6792;-75
2024/01/16 05:25:50;;;;;;;;;;;;;;;4.18;58.77;99917.00;4955902;28;6836;-75
2024/01/16 05:28:16;;;;;;;;;;;;;;;4.16;58.76;99918.56;4940482;28;8163;-75
2024/01/16 05:30:41;;;;;;;;;;;;;;;4.16;58.66;99916.03;4959431;28;6796;-75
2024/01/16 05:33:08;;;;;;;;;;;;;;;4.14;58.09;99921.00;4960007;28;6777;-75
2024/01/16 05:35:34;;;;;;;;;;;;;;;4.13;57.84;99923.41;4959951;28;7030;-75
2024/01/16 05:37:59;;;;;;;;;;;;;;;4.12;57.84;99924.19;4945939;28;7309;-75
2024/01/16 05:40:26;;;;;;;;;;;;;;;4.10;57.54;99916.47;4947893;28;6813;-74
2024/01/16 05:42:52;;;;;;;;;;;;;;;4.10;58.24;99915.63;4922238;28;8034;-75
2024/01/16 05:45:18;;;;;;;;;;;;;;;4.10;58.27;99913.06;4943877;28;7115;-75
2024/01/16 05:47:44;;;;;;;;;;;;;;;4.11;58.16;99914.84;4948322;28;6967;-75
2024/01/16 05:50:10;;;;;;;;;;;;;;;4.12;58.04;99906.44;4948840;28;7094;-75
2024/01/16 05:52:36;;;;;;;;;;;;;;;4.11;58.01;99907.22;4943307;28;7098;-75
2024/01/16 05:55:03;;;;;;;;;;;;;;;4.08;58.08;99905.34;4945747;28;7840;-75
2024/01/16 05:57:33;;;;;;;;;;;;;;;4.06;57.99;99904.38;4957242;28;6890;-77
2024/01/16 06:00:03;;;;;;;;;;;;;;;4.05;57.75;99911.88;4972691;28;6878;-74
2024/01/16 06:02:28;;;;;;;;;;;;;;;4.04;58.13;99911.03;4945201;28;6995;-75
2024/01/16 06:04:54;;;;;;;;;;;;;;;4.01;57.22;99901.53;4953484;28;6765;-75
2024/01/16 06:07:20;;;;;;;;;;;;;;;4.00;57.94;99912.47;4970219;28;6936;-75
2024/01/16 06:09:46;;;;;;;;;;;;;;;3.98;57.64;99903.88;4967669;28;6800;-76
2024/01/16 06:12:12;;;;;;;;;;;;;;;3.97;57.94;99913.91;4978739;28;7237;-76
2024/01/16 06:14:38;;;;;;;;;;;;;;;3.93;57.56;99917.91;4967776;28;7001;-75
2024/01/16 06:17:05;;;;;;;;;;;;;;;3.91;56.84;99911.84;4974983;28;6764;-76
2024/01/16 06:19:32;;;;;;;;;;;;;;;3.89;57.05;99913.41;4946181;28;7007;-76
2024/01/16 06:21:59;;;;;;;;;;;;;;;3.87;57.39;99922.59;4971080;28;6962;-75
2024/01/16 06:24:25;;;;;;;;;;;;;;;3.84;56.95;99913.09;4971169;28;7333;-76
2024/01/16 06:26:50;;;;;;;;;;;;;;;3.82;57.64;99913.78;4974344;28;7553;-74
2024/01/16 06:29:16;;;;;;;;;;;;;;;3.78;57.28;99920.28;4976100;28;6808;-76
2024/01/16 06:31:42;;;;;;;;;;;;;;;3.74;56.95;99924.28;4978088;28;6999;-75
2024/01/16 06:34:08;;;;;;;;;;;;;;;3.68;57.09;99921.34;4974754;28;6760;-77
2024/01/16 06:36:34;;;;;;;;;;;;;;;3.61;56.41;99909.88;4977107;28;8673;-75
2024/01/16 06:39:00;;;;;;;;;;;;;;;3.55;56.60;99911.13;4979043;28;6776;-74
2024/01/16 06:41:25;;;;;;;;;;;;;;;3.50;56.55;99920.09;4950809;28;6911;-75
2024/01/16 06:43:51;;;;;;;;;;;;;;;3.45;57.48;99918.09;4962911;28;6784;-74
2024/01/16 06:46:17;;;;;;;;;;;;;;;3.43;57.27;99924.72;4984021;28;6756;-74
2024/01/16 06:48:44;;;;;;;;;;;;;;;3.43;56.47;99927.25;4984061;23;6820;-85
2024/01/16 06:51:13;;;;;;;;;;;;;;;3.44;57.31;99930.69;4960154;28;8638;-85
2024/01/16 06:53:39;;;;;;;;;;;;;;;3.46;56.69;99917.31;4955541;28;8514;-85
2024/01/16 06:56:07;;;;;;;;;;;;;;;3.47;57.49;99915.69;4955125;28;6776;-85
2024/01/16 06:58:33;;;;;;;;;;;;;;;3.45;57.59;99918.09;4943296;28;8637;-85
2024/01/16 07:01:00;;;;;;;;;;;;;;;3.43;56.69;99922.19;4964972;23;7058;-85
2024/01/16 07:03:26;;;;;;;;;;;;;;;3.38;56.50;99915.03;4957830;28;7184;-85
2024/01/16 07:05:51;;;;;;;;;;;;;;;3.35;57.32;99922.44;4936637;28;7116;-85
2024/01/16 07:08:17;;;;;;;;;;;;;;;3.31;56.14;99931.47;4931540;28;8388;-83
2024/01/16 07:10:48;;;;;;;;;;;;;;;3.24;57.23;99926.75;4943267;28;7135;-84
2024/01/16 07:13:14;;;;;;;;;;;;;;;3.19;56.27;99929.84;4957373;28;6855;-83
2024/01/16 07:15:40;;;;;;;;;;;;;;;3.15;56.47;99932.06;4956433;28;6924;-86
2024/01/16 07:18:05;;;;;;;;;;;;;;;3.13;56.34;99939.53;4951107;28;7155;-84
2024/01/16 07:20:31;;;;;;;;;;;;;;;3.09;56.62;99942.66;4957882;28;7167;-84
2024/01/16 07:22:56;;;;;;;;;;;;;;;3.05;56.38;99945.72;4958642;28;6760;-84
2024/01/16 07:25:22;;;;;;;;;;;;;;;3.03;55.93;99952.34;4989342;23;7905;-76
2024/01/16 07:27:49;;;;;;;;;;;;;;;3.02;57.03;99961.56;4981969;28;6788;-76
2024/01/16 07:30:15;;;;;;;;;;;;;;;3.00;57.07;99950.47;4990851;28;7117;-76
2024/01/16 07:32:41;;;;;;;;;;;;;;;3.00;56.38;99954.66;4969484;28;6772;-76
2024/01/16 07:35:07;;;;;;;;;;;;;;;3.01;56.48;99953.88;4977466;28;7244;-76
2024/01/16 07:37:32;;;;;;;;;;;;;;;3.00;56.50;99958.06;4972642;28;6768;-76
2024/01/16 07:39:58;;;;;;;;;;;;;;;3.01;57.12;99956.41;4959303;28;6868;-76
2024/01/16 07:42:24;;;;;;;;;;;;;;;3.01;55.97;99953.88;4982301;28;6829;-75
2024/01/16 07:44:50;;;;;;;;;;;;;;;3.01;56.35;99948.81;4971585;28;6995;-76
2024/01/16 07:47:15;;;;;;;;;;;;;;;3.00;56.23;99955.53;4974935;28;6788;-76
2024/01/16 07:49:42;;;;;;;;;;;;;;;2.99;56.44;99960.47;4957488;28;6967;-75
2024/01/16 07:52:07;;;;;;;;;;;;;;;2.98;56.32;99954.53;4959089;28;8530;-75
2024/01/16 07:54:33;;;;;;;;;;;;;;;2.97;56.45;99955.31;4969646;28;7237;-76
2024/01/16 07:56:59;;;;;;;;;;;;;;;2.95;56.79;99948.38;4974320;28;6764;-75
2024/01/16 07:59:26;;;;;;;;;;;;;;;2.94;56.27;99950.00;4989556;28;7090;-75
2024/01/16 08:01:52;;;;;;;;;;;;;;;2.93;56.67;99958.38;4949909;28;7282;-75
2024/01/16 08:04:17;;;;;;;;;;;;;;;2.92;55.94;99954.09;4944317;28;7035;-75
2024/01/16 08:06:43;;;;;;;;;;;;;;;2.94;56.04;99961.81;4952346;28;7059;-76
2024/01/16 08:09:11;;;;;;;;;;;;;;;2.95;56.14;99961.94;4965281;28;6789;-75
2024/01/16 08:11:37;;;;;;;;;;;;;;;2.98;55.72;99961.25;4957149;28;6990;-75
2024/01/16 08:14:03;;;;;;;;;;;;;;;3.01;56.45;99962.34;4973099;28;7015;-75
2024/01/16 08:16:28;;;;;;;;;;;;;;;3.04;55.92;99971.81;4990355;28;8947;-75
2024/01/16 08:18:54;;;;;;;;;;;;;;;3.06;56.06;99970.25;4961148;28;6953;-75
2024/01/16 08:21:19;;;;;;;;;;;;;;;3.08;55.99;99986.44;4966788;28;7219;-75
2024/01/16 08:23:45;;;;;;;;;;;;;;;3.08;55.70;99981.38;4989724;28;7250;-75
2024/01/16 08:26:11;;;;;;;;;;;;;;;3.12;55.85;99996.03;4971651;28;6897;-75
2024/01/16 08:28:36;;;;;;;;;;;;;;;3.14;55.65;99986.88;4972950;28;6952;-75
2024/01/16 08:31:02;;;;;;;;;;;;;;;3.16;56.32;99995.47;4973687;28;7306;-75
2024/01/16 08:33:28;;;;;;;;;;;;;;;3.21;55.93;99989.88;4968599;28;6780;-75
2024/01/16 08:35:53;;;;;;;;;;;;;;;3.25;55.92;99987.66;4958811;28;6776;-75
2024/01/16 08:38:19;;;;;;;;;;;;;;;3.31;55.97;99990.59;4960697;28;7871;-75
2024/01/16 08:40:44;;;;;;;;;;;;;;;3.40;55.38;99980.25;4978280;28;6784;-75
2024/01/16 08:43:10;;;;;;;;;;;;;;;3.46;56.56;99972.19;4982901;28;6768;-76
2024/01/16 08:45:36;;;;;;;;;;;;;;;3.56;55.97;99971.16;4970224;28;7040;-75
2024/01/16 08:48:01;;;;;;;;;;;;;;;3.67;55.64;99966.84;4978988;28;7848;-75
2024/01/16 08:50:28;;;;;;;;;;;;;;;3.74;55.30;99967.38;4968344;28;7181;-75
2024/01/16 08:52:54;;;;;;;;;;;;;;;3.81;55.43;99972.88;4971690;28;6793;-75
2024/01/16 08:55:19;;;;;;;;;;;;;;;3.84;55.69;99976.50;4974951;28;6922;-75
2024/01/16 08:57:45;;;;;;;;;;;;;;;3.89;55.06;99976.81;4976266;28;6939;-75
2024/01/16 09:00:12;;;;;;;;;;;;;;;3.94;55.60;99975.44;4986285;28;7126;-75
2024/01/16 09:02:37;;;;;;;;;;;;;;;3.98;55.38;99976.53;4962196;28;6864;-75
2024/01/16 09:05:04;;;;;;;;;;;;;;;4.06;54.96;99977.94;4968157;28;6787;-74
2024/01/16 09:07:30;;;;;;;;;;;;;;;4.14;55.51;99983.50;4965872;28;7058;-75
2024/01/16 09:09:56;;;;;;;;;;;;;;;4.18;55.24;99988.03;4964316;28;7135;-75
2024/01/16 09:12:21;;;;;;;;;;;;;;;4.23;54.94;99983.28;4965683;28;6822;-74
2024/01/16 09:14:47;;;;;;;;;;;;;;;4.26;54.82;99991.06;4927901;28;7171;-75
2024/01/16 09:17:13;;;;;;;;;;;;;;;4.30;54.26;99996.47;4967964;28;7849;-75
2024/01/16 09:19:38;;;;;;;;;;;;;;;4.38;54.56;99993.56;4975081;28;7355;-75
2024/01/16 09:22:04;;;;;;;;;;;;;;;4.42;54.13;99992.97;4968717;28;7181;-75
2024/01/16 09:24:30;;;;;;;;;;;;;;;4.45;54.52;99990.66;4952862;28;6772;-75
2024/01/16 09:26:58;;;;;;;;;;;;;;;4.49;54.16;99982.44;4940739;28;6979;-75
2024/01/16 09:29:24;;;;;;;;;;;;;;;4.53;54.05;99976.78;4962142;28;6808;-75
2024/01/16 09:31:50;;;;;;;;;;;;;;;4.59;54.29;99979.72;4969008;28;6812;-74
2024/01/16 09:34:17;;;;;;;;;;;;;;;4.65;53.47;99975.84;4979283;28;6979;-75
2024/01/16 09:36:42;;;;;;;;;;;;;;;4.66;53.38;99977.59;4967069;28;6780;-75
2024/01/16 09:39:08;;;;;;;;;;;;;;;4.67;53.51;99981.91;4965079;28;7666;-75
2024/01/16 09:41:42;;;;;;;;;;;;;;;4.68;53.76;99984.53;4948413;28;6966;-75
2024/01/16 09:44:08;;;;;;;;;;;;;;;4.66;53.49;99982.69;4958510;28;7261;-75
2024/01/16 09:46:38;;;;;;;;;;;;;;;4.65;53.30;99975.84;4980376;28;6785;-75
2024/01/16 09:49:04;;;;;;;;;;;;;;;4.64;53.50;99971.56;4959068;28;7659;-75
2024/01/16 09:51:30;;;;;;;;;;;;;;;4.61;53.28;99964.59;4960459;28;6844;-75
2024/01/16 09:53:56;;;;;;;;;;;;;;;4.59;53.29;99969.56;4973719;28;6988;-75
2024/01/16 09:56:24;;;;;;;;;;;;;;;4.54;53.09;99960.81;4961277;28;6979;-75
2024/01/16 09:58:58;;;;;;;;;;;;;;;4.54;53.35;99960.81;4979886;28;7847;-75
2024/01/16 10:01:27;;;;;;;;;;;;;;;4.55;53.04;99957.47;4962058;28;6816;-75
2024/01/16 10:03:53;;;;;;;;;;;;;;;4.59;53.06;99956.88;4941550;28;7066;-75
2024/01/16 10:06:20;;;;;;;;;;;;;;;4.66;52.90;99950.53;4975418;28;6768;-75
2024/01/16 10:08:46;;;;;;;;;;;;;;;4.72;52.82;99940.78;4958223;28;7676;-75
2024/01/16 10:11:12;;;;;;;;;;;;;;;4.78;52.82;99947.91;4959314;28;6846;-75
2024/01/16 10:13:38;;;;;;;;;;;;;;;4.81;52.66;99937.09;4974267;28;7061;-75
2024/01/16 10:16:04;;;;;;;;;;;;;;;4.76;51.97;99934.25;4953886;28;6788;-75
2024/01/16 10:18:30;;;;;;;;;;;;;;;4.68;52.26;99932.88;4963020;28;7258;-75
2024/01/16 10:20:56;;;;;;;;;;;;;;;4.62;51.85;99937.53;4968656;28;6784;-75
2024/01/16 10:23:25;;;;;;;;;;;;;;;4.55;52.08;99932.09;4956886;28;7427;-75
2024/01/16 10:26:12;;;;;;;;;;;;;;;4.55;52.15;99926.13;4958766;28;7240;-75
2024/01/16 10:28:42;;;;;;;;;;;;;;;4.67;52.93;99926.03;4976409;28;6816;-75
2024/01/16 10:31:11;;;;;;;;;;;;;;;4.85;52.54;99927.22;4960278;28;6818;-74
2024/01/16 10:33:39;;;;;;;;;;;;;;;5.14;52.58;99919.66;4951870;28;7046;-75
2024/01/16 10:36:18;;;;;;;;;;;;;;;5.46;52.32;99912.25;4970087;28;6804;-74
2024/01/16 10:38:45;;;;;;;;;;;;;;;5.79;52.08;99905.75;4980032;28;8160;-75
2024/01/16 10:41:16;;;;;;;;;;;;;;;6.12;51.82;99920.41;4985361;28;6784;-74
2024/01/16 10:43:46;;;;;;;;;;;;;;;6.44;50.91;99912.88;4963657;28;7011;-75
2024/01/16 10:46:14;;;;;;;;;;;;;;;6.79;50.98;99896.13;4959903;28;6859;-75
2024/01/16 10:48:59;;;;;;;;;;;;;;;7.19;50.48;99910.16;4962225;28;7251;-76
2024/01/16 10:51:27;;;;;;;;;;;;;;;7.63;49.94;99910.75;4983896;28;6816;-76
2024/01/16 10:53:59;;;;;;;;;;;;;;;7.99;48.79;99908.34;4941564;28;8051;-76
2024/01/16 10:56:28;;;;;;;;;;;;;;;8.38;47.21;99906.81;4981453;28;6796;-76
2024/01/16 10:59:21;;;;;;;;;;;;;;;8.81;46.44;99892.72;4980368;28;6804;-76
2024/01/16 11:01:56;;;;;;;;;;;;;;;9.14;46.53;99893.41;4960539;28;6804;-75
2024/01/16 11:04:23;;;;;;;;;;;;;;;9.34;45.68;99882.28;4961288;28;7370;-76
2024/01/16 11:06:52;;;;;;;;;;;;;;;9.48;44.49;99890.59;4971317;28;7651;-76
2024/01/16 11:09:20;;;;;;;;;;;;;;;9.62;44.39;99894.66;4968004;28;6854;-75
2024/01/16 11:11:47;;;;;;;;;;;;;;;9.84;44.39;99886.19;4982564;28;7130;-75
2024/01/16 11:14:16;;;;;;;;;;;;;;;10.23;44.05;99886.91;4986760;28;6916;-75
2024/01/16 11:16:43;;;;;;;;;;;;;;;10.52;43.37;99893.25;4974839;28;6977;-76
2024/01/16 11:19:09;;;;;;;;;;;;;;;10.89;43.03;99893.81;4972503;28;7205;-74
2024/01/16 11:21:37;;;;;;;;;;;;;;;11.36;41.91;99886.19;4970718;28;6836;-74
2024/01/16 11:24:03;;;;;;;;;;;;;;;11.62;41.50;99890.50;4977584;28;6967;-75
2024/01/16 11:26:36;;;;;;;;;;;;;;;11.71;41.13;99897.63;4971620;28;6796;-75
2024/01/16 11:29:27;;;;;;;;;;;;;;;11.88;41.32;99893.09;4974476;28;6828;-76
2024/01/16 11:31:53;;;;;;;;;;;;;;;12.04;40.71;99889.41;4992084;28;6788;-75
2024/01/16 11:34:41;;;;;;;;;;;;;;;12.20;40.55;99880.50;4991695;28;6800;-76
2024/01/16 11:37:12;;;;;;;;;;;;;;;12.28;39.75;99875.63;4988632;28;6983;-76
2024/01/16 11:39:38;;;;;;;;;;;;;;;12.31;39.26;99857.72;4976799;28;6973;-76
2024/01/16 11:42:04;;;;;;;;;;;;;;;12.33;38.98;99856.94;4973215;28;7133;-76
2024/01/16 11:44:55;;;;;;;;;;;;;;;12.32;39.17;99859.50;4991116;28;6795;-76
2024/01/16 11:47:24;;;;;;;;;;;;;;;12.31;38.22;99858.59;4977493;28;6808;-75
2024/01/16 11:50:10;;;;;;;;;;;;;;;12.44;38.10;99857.31;4975439;28;6807;-76
2024/01/16 11:52:44;;;;;;;;;;;;;;;12.53;38.55;99861.00;4973025;28;6999;-76
2024/01/16 11:55:57;;;;;;;;;;;;;;;12.71;38.66;99856.41;4982049;28;6977;-76
2024/01/16 11:58:54;;;;;;;;;;;;;;;12.92;37.53;99855.31;4978886;28;7239;-76
2024/01/16 12:01:21;;;;;;;;;;;;;;;13.11;37.50;99849.00;4986092;28;7019;-77
2024/01/16 12:04:00;;;;;;;;;;;;;;;13.23;37.26;99843.34;4976875;28;6772;-76
2024/01/16 12:06:26;;;;;;;;;;;;;;;13.11;36.93;99843.00;4993106;28;6948;-76
2024/01/16 12:08:52;;;;;;;;;;;;;;;13.03;36.62;99840.19;4993692;28;7851;-76
2024/01/16 12:11:20;;;;;;;;;;;;;;;12.95;36.85;99836.53;4989773;28;6832;-75
2024/01/16 12:14:02;;;;;;;;;;;;;;;12.86;36.97;99835.44;4970618;28;7124;-77
2024/01/16 12:16:27;;;;;;;;;;;;;;;12.80;37.11;99824.97;4976645;28;7006;-76
2024/01/16 12:19:13;;;;;;;;;;;;;;;12.52;35.57;99826.69;4988129;28;6765;-76
2024/01/16 12:21:44;;;;;;;;;;;;;;;11.64;36.61;99825.56;4957525;28;7000;-75
2024/01/16 12:24:11;;;;;;;;;;;;;;;10.51;36.88;99817.22;4995653;28;6947;-76
2024/01/16 12:26:39;;;;;;;;;;;;;;;9.47;38.24;99814.66;4977096;28;6792;-75
2024/01/16 12:29:05;;;;;;;;;;;;;;;8.63;38.96;99810.94;4976298;28;6796;-75
2024/01/16 12:31:31;;;;;;;;;;;;;;;7.96;39.46;99823.09;4973543;28;8797;-74
2024/01/16 12:34:07;;;;;;;;;;;;;;;7.41;41.20;99822.06;4987837;28;7293;-75
2024/01/16 12:36:34;;;;;;;;;;;;;;;7.01;41.14;99811.53;4966981;28;6780;-76
2024/01/16 12:39:00;;;;;;;;;;;;;;;6.71;42.23;99809.13;4973634;28;7061;-76
2024/01/16 12:41:37;;;;;;;;;;;;;;;6.44;42.69;99801.72;4986044;28;7203;-76
2024/01/16 12:44:04;;;;;;;;;;;;;;;6.23;43.14;99804.84;4964847;28;6796;-77
2024/01/16 12:46:29;;;;;;;;;;;;;;;6.07;43.15;99798.00;4973297;28;6912;-76
2024/01/16 12:49:07;;;;;;;;;;;;;;;5.91;43.68;99806.41;4992020;28;7222;-75
2024/01/16 12:51:32;;;;;;;;;;;;;;;5.78;43.81;99803.94;4985501;28;6950;-75
2024/01/16 12:54:17;;;;;;;;;;;;;;;5.68;44.26;99805.94;4986365;28;6962;-75
2024/01/16 12:56:43;;;;;;;;;;;;;;;5.60;44.47;99794.50;4965224;28;6987;-72
2024/01/16 12:59:12;;;;;;;;;;;;;;;5.53;44.11;99802.53;4969905;28;6796;-72
2024/01/16 13:01:45;;;;;;;;;;;;;;;5.45;44.30;99791.91;4981536;28;7216;-75
2024/01/16 13:04:13;;;;;;;;;;;;;;;5.40;44.16;99795.84;4972011;28;7259;-74
2024/01/16 13:06:39;;;;;;;;;;;;;;;5.36;44.81;99794.78;4959942;28;6982;-72
2024/01/16 13:09:09;;;;;;;;;;;;;;;5.33;44.52;99793.72;4969691;28;6768;-72